sensor_id;sensor_type;location;lat;lon;timestamp;P1;durP1;ratioP1;P2;durP2;ratioP2
19057;SDS011;9662;53.612;9.914;2022-09-01T00:02:13;1.00;;;1.00;;
19057;SDS011;9662;53.612;9.914;2022-09-01T00:04:41;1.00;;;1.00;;
19057;SDS011;9662;53.612;9.914;2022-09-01T00:07:12;0.90;;;0.90;;
19057;SDS011;9662;53.612;9.914;2022-09-01T00:09:39;1.08;;;1.08;;
19057;SDS011;9662;53.612;9.914;2022-09-01T00:12:07;2.50;;;1.08;;
19057;SDS011;9662;53.612;9.914;2022-09-01T00:14:35;1.00;;;1.00;;
19057;SDS011;9662;53.612;9.914;2022-09-01T00:17:05;1.00;;;1.00;;
19057;SDS011;9662;53.612;9.914;2022-09-01T00:19:34;1.00;;;1.00;;
19057;SDS011;9662;53.612;9.914;2022-09-01T00:22:01;1.00;;;1.00;;
19057;SDS011;9662;53.612;9.914;2022-09-01T00:24:30;1.10;;;1.10;;
19057;SDS011;9662;53.612;9.914;2022-09-01T00:26:57;1.00;;;1.00;;
19057;SDS011;9662;53.612;9.914;2022-09-01T00:29:24;1.00;;;1.00;;
19057;SDS011;9662;53.612;9.914;2022-09-01T00:31:51;1.60;;;1.05;;
19057;SDS011;9662;53.612;9.914;2022-09-01T00:34:19;0.80;;;0.80;;
19057;SDS011;9662;53.612;9.914;2022-09-01T00:36:46;1.10;;;1.10;;
19057;SDS011;9662;53.612;9.914;2022-09-01T00:39:13;1.15;;;1.02;;
19057;SDS011;9662;53.612;9.914;2022-09-01T00:41:42;1.10;;;1.10;;
19057;SDS011;9662;53.612;9.914;2022-09-01T00:44:12;0.87;;;0.87;;
19057;SDS011;9662;53.612;9.914;2022-09-01T00:46:41;0.90;;;0.90;;
19057;SDS011;9662;53.612;9.914;2022-09-01T00:49:11;0.77;;;0.77;;
19057;SDS011;9662;53.612;9.914;2022-09-01T00:51:46;1.10;;;1.10;;
19057;SDS011;9662;53.612;9.914;2022-09-01T00:54:17;1.00;;;1.00;;
19057;SDS011;9662;53.612;9.914;2022-09-01T00:56:49;1.10;;;1.10;;
19057;SDS011;9662;53.612;9.914;2022-09-01T00:59:16;1.80;;;1.70;;
19057;SDS011;9662;53.612;9.914;2022-09-01T01:01:45;0.80;;;0.80;;
19057;SDS011;9662;53.612;9.914;2022-09-01T01:04:12;0.90;;;0.90;;
19057;SDS011;9662;53.612;9.914;2022-09-01T01:06:40;0.80;;;0.80;;
19057;SDS011;9662;53.612;9.914;2022-09-01T01:09:10;1.73;;;1.00;;
19057;SDS011;9662;53.612;9.914;2022-09-01T01:11:36;1.10;;;1.00;;
19057;SDS011;9662;53.612;9.914;2022-09-01T01:14:07;1.05;;;1.05;;
19057;SDS011;9662;53.612;9.914;2022-09-01T01:16:36;1.20;;;1.20;;
19057;SDS011;9662;53.612;9.914;2022-09-01T01:19:08;0.93;;;0.93;;
19057;SDS011;9662;53.612;9.914;2022-09-01T01:21:59;0.90;;;0.90;;
19057;SDS011;9662;53.612;9.914;2022-09-01T01:24:46;1.20;;;1.20;;
19057;SDS011;9662;53.612;9.914;2022-09-01T01:27:12;2.50;;;1.27;;
19057;SDS011;9662;53.612;9.914;2022-09-01T01:29:42;1.20;;;1.20;;
19057;SDS011;9662;53.612;9.914;2022-09-01T01:32:08;1.30;;;0.90;;
19057;SDS011;9662;53.612;9.914;2022-09-01T01:34:36;1.25;;;1.25;;
19057;SDS011;9662;53.612;9.914;2022-09-01T01:37:04;1.10;;;1.10;;
19057;SDS011;9662;53.612;9.914;2022-09-01T01:39:30;1.17;;;1.17;;
19057;SDS011;9662;53.612;9.914;2022-09-01T01:41:59;0.90;;;0.90;;
19057;SDS011;9662;53.612;9.914;2022-09-01T01:44:25;1.00;;;1.00;;
19057;SDS011;9662;53.612;9.914;2022-09-01T01:46:54;1.20;;;1.20;;
19057;SDS011;9662;53.612;9.914;2022-09-01T01:49:22;1.13;;;1.13;;
19057;SDS011;9662;53.612;9.914;2022-09-01T01:51:55;1.15;;;1.15;;
19057;SDS011;9662;53.612;9.914;2022-09-01T01:54:22;1.00;;;1.00;;
19057;SDS011;9662;53.612;9.914;2022-09-01T01:56:49;1.00;;;1.00;;
19057;SDS011;9662;53.612;9.914;2022-09-01T01:59:18;1.00;;;1.00;;
19057;SDS011;9662;53.612;9.914;2022-09-01T02:01:48;1.00;;;1.00;;
19057;SDS011;9662;53.612;9.914;2022-09-01T02:04:17;1.20;;;1.20;;
19057;SDS011;9662;53.612;9.914;2022-09-01T02:06:45;0.90;;;0.90;;
19057;SDS011;9662;53.612;9.914;2022-09-01T02:09:14;0.90;;;0.90;;
19057;SDS011;9662;53.612;9.914;2022-09-01T02:11:41;1.05;;;1.05;;
19057;SDS011;9662;53.612;9.914;2022-09-01T02:14:09;1.10;;;1.10;;
19057;SDS011;9662;53.612;9.914;2022-09-01T02:16:38;0.82;;;0.82;;
19057;SDS011;9662;53.612;9.914;2022-09-01T02:19:06;1.10;;;1.10;;
19057;SDS011;9662;53.612;9.914;2022-09-01T02:21:36;1.20;;;1.20;;
19057;SDS011;9662;53.612;9.914;2022-09-01T02:24:09;1.30;;;1.20;;
19057;SDS011;9662;53.612;9.914;2022-09-01T02:26:37;1.00;;;1.00;;
19057;SDS011;9662;53.612;9.914;2022-09-01T02:29:08;1.20;;;1.10;;
19057;SDS011;9662;53.612;9.914;2022-09-01T02:31:43;1.20;;;1.20;;
19057;SDS011;9662;53.612;9.914;2022-09-01T02:34:11;1.00;;;1.00;;
19057;SDS011;9662;53.612;9.914;2022-09-01T02:36:39;1.10;;;1.10;;
19057;SDS011;9662;53.612;9.914;2022-09-01T02:39:12;1.30;;;1.20;;
19057;SDS011;9662;53.612;9.914;2022-09-01T02:41:39;1.10;;;1.10;;
19057;SDS011;9662;53.612;9.914;2022-09-01T02:44:06;1.40;;;1.25;;
19057;SDS011;9662;53.612;9.914;2022-09-01T02:46:36;1.13;;;1.02;;
19057;SDS011;9662;53.612;9.914;2022-09-01T02:49:07;1.13;;;1.13;;
19057;SDS011;9662;53.612;9.914;2022-09-01T02:51:39;0.95;;;0.95;;
19057;SDS011;9662;53.612;9.914;2022-09-01T02:54:06;2.20;;;1.20;;
19057;SDS011;9662;53.612;9.914;2022-09-01T02:56:33;1.20;;;1.20;;
19057;SDS011;9662;53.612;9.914;2022-09-01T02:59:00;1.00;;;1.00;;
19057;SDS011;9662;53.612;9.914;2022-09-01T03:01:28;1.20;;;1.20;;
19057;SDS011;9662;53.612;9.914;2022-09-01T03:03:57;1.15;;;1.15;;
19057;SDS011;9662;53.612;9.914;2022-09-01T03:06:27;1.00;;;1.00;;
19057;SDS011;9662;53.612;9.914;2022-09-01T03:08:58;1.20;;;1.20;;
19057;SDS011;9662;53.612;9.914;2022-09-01T03:11:26;0.98;;;0.98;;
19057;SDS011;9662;53.612;9.914;2022-09-01T03:13:54;1.17;;;1.17;;
19057;SDS011;9662;53.612;9.914;2022-09-01T03:16:21;1.10;;;1.10;;
19057;SDS011;9662;53.612;9.914;2022-09-01T03:18:47;1.27;;;1.27;;
19057;SDS011;9662;53.612;9.914;2022-09-01T03:21:14;2.40;;;1.20;;
19057;SDS011;9662;53.612;9.914;2022-09-01T03:23:43;1.10;;;1.10;;
19057;SDS011;9662;53.612;9.914;2022-09-01T03:26:11;1.40;;;1.20;;
19057;SDS011;9662;53.612;9.914;2022-09-01T03:28:40;1.00;;;1.00;;
19057;SDS011;9662;53.612;9.914;2022-09-01T03:31:07;1.27;;;1.27;;
19057;SDS011;9662;53.612;9.914;2022-09-01T03:33:34;1.48;;;1.20;;
19057;SDS011;9662;53.612;9.914;2022-09-01T03:36:01;1.13;;;1.13;;
19057;SDS011;9662;53.612;9.914;2022-09-01T03:38:28;1.10;;;1.10;;
19057;SDS011;9662;53.612;9.914;2022-09-01T03:41:00;1.20;;;1.20;;
19057;SDS011;9662;53.612;9.914;2022-09-01T03:43:29;1.30;;;1.30;;
19057;SDS011;9662;53.612;9.914;2022-09-01T03:45:58;2.00;;;1.23;;
19057;SDS011;9662;53.612;9.914;2022-09-01T03:48:26;1.50;;;1.50;;
19057;SDS011;9662;53.612;9.914;2022-09-01T03:50:54;1.20;;;1.20;;
19057;SDS011;9662;53.612;9.914;2022-09-01T03:53:26;3.38;;;1.60;;
19057;SDS011;9662;53.612;9.914;2022-09-01T03:55:55;1.60;;;1.60;;
19057;SDS011;9662;53.612;9.914;2022-09-01T03:58:24;2.08;;;1.98;;
19057;SDS011;9662;53.612;9.914;2022-09-01T04:00:52;2.03;;;2.00;;
19057;SDS011;9662;53.612;9.914;2022-09-01T04:03:21;2.33;;;2.08;;
19057;SDS011;9662;53.612;9.914;2022-09-01T04:05:50;4.05;;;1.65;;
19057;SDS011;9662;53.612;9.914;2022-09-01T04:08:18;1.30;;;1.30;;
19057;SDS011;9662;53.612;9.914;2022-09-01T04:10:47;1.60;;;1.52;;
19057;SDS011;9662;53.612;9.914;2022-09-01T04:13:16;1.67;;;1.58;;
19057;SDS011;9662;53.612;9.914;2022-09-01T04:15:44;1.30;;;1.20;;
19057;SDS011;9662;53.612;9.914;2022-09-01T04:18:11;1.67;;;1.67;;
19057;SDS011;9662;53.612;9.914;2022-09-01T04:20:45;1.50;;;1.47;;
19057;SDS011;9662;53.612;9.914;2022-09-01T04:23:14;1.50;;;1.50;;
19057;SDS011;9662;53.612;9.914;2022-09-01T04:25:45;1.65;;;1.55;;
19057;SDS011;9662;53.612;9.914;2022-09-01T04:28:14;1.50;;;1.50;;
19057;SDS011;9662;53.612;9.914;2022-09-01T04:30:48;1.45;;;1.45;;
19057;SDS011;9662;53.612;9.914;2022-09-01T04:33:16;2.28;;;1.70;;
19057;SDS011;9662;53.612;9.914;2022-09-01T04:35:43;1.33;;;1.33;;
19057;SDS011;9662;53.612;9.914;2022-09-01T04:38:10;1.50;;;1.50;;
19057;SDS011;9662;53.612;9.914;2022-09-01T04:40:39;1.50;;;1.40;;
19057;SDS011;9662;53.612;9.914;2022-09-01T04:43:07;1.77;;;1.67;;
19057;SDS011;9662;53.612;9.914;2022-09-01T04:45:34;1.80;;;1.70;;
19057;SDS011;9662;53.612;9.914;2022-09-01T04:48:03;1.73;;;1.63;;
19057;SDS011;9662;53.612;9.914;2022-09-01T04:50:30;1.60;;;1.60;;
19057;SDS011;9662;53.612;9.914;2022-09-01T04:52:59;1.37;;;1.37;;
19057;SDS011;9662;53.612;9.914;2022-09-01T04:55:27;2.25;;;1.98;;
19057;SDS011;9662;53.612;9.914;2022-09-01T04:57:55;1.55;;;1.50;;
19057;SDS011;9662;53.612;9.914;2022-09-01T05:00:24;1.27;;;1.27;;
19057;SDS011;9662;53.612;9.914;2022-09-01T05:02:56;1.60;;;1.50;;
19057;SDS011;9662;53.612;9.914;2022-09-01T05:05:29;1.70;;;1.60;;
19057;SDS011;9662;53.612;9.914;2022-09-01T05:08:06;1.23;;;1.23;;
19057;SDS011;9662;53.612;9.914;2022-09-01T05:10:38;1.50;;;1.50;;
19057;SDS011;9662;53.612;9.914;2022-09-01T05:13:07;2.17;;;1.70;;
19057;SDS011;9662;53.612;9.914;2022-09-01T05:15:36;2.42;;;1.55;;
19057;SDS011;9662;53.612;9.914;2022-09-01T05:18:05;2.00;;;1.40;;
19057;SDS011;9662;53.612;9.914;2022-09-01T05:20:37;1.70;;;1.60;;
19057;SDS011;9662;53.612;9.914;2022-09-01T05:23:06;1.73;;;1.67;;
19057;SDS011;9662;53.612;9.914;2022-09-01T05:25:37;1.70;;;1.70;;
19057;SDS011;9662;53.612;9.914;2022-09-01T05:28:06;1.70;;;1.60;;
19057;SDS011;9662;53.612;9.914;2022-09-01T05:30:36;1.77;;;1.67;;
19057;SDS011;9662;53.612;9.914;2022-09-01T05:33:04;1.48;;;1.48;;
19057;SDS011;9662;53.612;9.914;2022-09-01T05:35:42;2.40;;;2.28;;
19057;SDS011;9662;53.612;9.914;2022-09-01T05:38:19;2.10;;;2.00;;
19057;SDS011;9662;53.612;9.914;2022-09-01T05:40:53;2.17;;;1.98;;
19057;SDS011;9662;53.612;9.914;2022-09-01T05:43:22;2.03;;;1.70;;
19057;SDS011;9662;53.612;9.914;2022-09-01T05:45:51;4.70;;;1.98;;
19057;SDS011;9662;53.612;9.914;2022-09-01T05:48:19;1.70;;;1.70;;
19057;SDS011;9662;53.612;9.914;2022-09-01T05:50:49;2.08;;;1.98;;
19057;SDS011;9662;53.612;9.914;2022-09-01T05:53:20;1.92;;;1.88;;
19057;SDS011;9662;53.612;9.914;2022-09-01T05:55:49;2.22;;;1.92;;
19057;SDS011;9662;53.612;9.914;2022-09-01T05:58:22;1.85;;;1.85;;
19057;SDS011;9662;53.612;9.914;2022-09-01T06:00:50;1.80;;;1.80;;
19057;SDS011;9662;53.612;9.914;2022-09-01T06:03:18;1.80;;;1.70;;
19057;SDS011;9662;53.612;9.914;2022-09-01T06:05:46;1.65;;;1.65;;
19057;SDS011;9662;53.612;9.914;2022-09-01T06:08:18;1.70;;;1.70;;
19057;SDS011;9662;53.612;9.914;2022-09-01T06:10:45;1.50;;;1.40;;
19057;SDS011;9662;53.612;9.914;2022-09-01T06:13:14;2.10;;;1.60;;
19057;SDS011;9662;53.612;9.914;2022-09-01T06:15:41;1.70;;;1.60;;
19057;SDS011;9662;53.612;9.914;2022-09-01T06:18:09;1.67;;;1.67;;
19057;SDS011;9662;53.612;9.914;2022-09-01T06:20:37;1.60;;;1.50;;
19057;SDS011;9662;53.612;9.914;2022-09-01T06:23:05;3.50;;;1.58;;
19057;SDS011;9662;53.612;9.914;2022-09-01T06:25:36;2.30;;;2.10;;
19057;SDS011;9662;53.612;9.914;2022-09-01T06:28:06;3.97;;;2.00;;
19057;SDS011;9662;53.612;9.914;2022-09-01T06:30:36;1.50;;;1.50;;
19057;SDS011;9662;53.612;9.914;2022-09-01T06:33:04;1.33;;;1.30;;
19057;SDS011;9662;53.612;9.914;2022-09-01T06:35:33;1.50;;;1.50;;
19057;SDS011;9662;53.612;9.914;2022-09-01T06:38:01;1.40;;;1.40;;
19057;SDS011;9662;53.612;9.914;2022-09-01T06:40:28;2.17;;;1.50;;
19057;SDS011;9662;53.612;9.914;2022-09-01T06:42:57;1.87;;;1.77;;
19057;SDS011;9662;53.612;9.914;2022-09-01T06:45:27;1.80;;;1.50;;
19057;SDS011;9662;53.612;9.914;2022-09-01T06:47:53;1.30;;;1.30;;
19057;SDS011;9662;53.612;9.914;2022-09-01T06:50:21;2.50;;;1.60;;
19057;SDS011;9662;53.612;9.914;2022-09-01T06:52:48;1.35;;;1.30;;
19057;SDS011;9662;53.612;9.914;2022-09-01T06:55:33;1.92;;;1.13;;
19057;SDS011;9662;53.612;9.914;2022-09-01T06:58:03;1.05;;;0.95;;
19057;SDS011;9662;53.612;9.914;2022-09-01T07:00:31;1.30;;;1.20;;
19057;SDS011;9662;53.612;9.914;2022-09-01T07:02:59;1.35;;;1.25;;
19057;SDS011;9662;53.612;9.914;2022-09-01T07:05:33;1.70;;;1.20;;
19057;SDS011;9662;53.612;9.914;2022-09-01T07:08:03;3.80;;;1.10;;
19057;SDS011;9662;53.612;9.914;2022-09-01T07:10:32;1.00;;;0.90;;
19057;SDS011;9662;53.612;9.914;2022-09-01T07:12:59;0.83;;;0.83;;
19057;SDS011;9662;53.612;9.914;2022-09-01T07:15:27;1.08;;;1.00;;
19057;SDS011;9662;53.612;9.914;2022-09-01T07:17:55;2.93;;;1.03;;
19057;SDS011;9662;53.612;9.914;2022-09-01T07:20:23;0.88;;;0.88;;
19057;SDS011;9662;53.612;9.914;2022-09-01T07:22:53;0.80;;;0.80;;
19057;SDS011;9662;53.612;9.914;2022-09-01T07:25:21;1.05;;;0.77;;
19057;SDS011;9662;53.612;9.914;2022-09-01T07:27:48;0.90;;;0.90;;
19057;SDS011;9662;53.612;9.914;2022-09-01T07:30:15;0.65;;;0.60;;
19057;SDS011;9662;53.612;9.914;2022-09-01T07:32:44;1.40;;;0.90;;
19057;SDS011;9662;53.612;9.914;2022-09-01T07:35:13;0.80;;;0.80;;
19057;SDS011;9662;53.612;9.914;2022-09-01T07:37:40;1.00;;;0.90;;
19057;SDS011;9662;53.612;9.914;2022-09-01T07:40:09;0.90;;;0.90;;
19057;SDS011;9662;53.612;9.914;2022-09-01T07:42:38;2.65;;;0.98;;
19057;SDS011;9662;53.612;9.914;2022-09-01T07:45:05;0.90;;;0.90;;
19057;SDS011;9662;53.612;9.914;2022-09-01T07:47:34;1.50;;;0.83;;
19057;SDS011;9662;53.612;9.914;2022-09-01T07:50:03;0.90;;;0.90;;
19057;SDS011;9662;53.612;9.914;2022-09-01T07:52:32;2.97;;;1.00;;
19057;SDS011;9662;53.612;9.914;2022-09-01T07:55:00;0.80;;;0.80;;
19057;SDS011;9662;53.612;9.914;2022-09-01T07:57:27;0.88;;;0.88;;
19057;SDS011;9662;53.612;9.914;2022-09-01T07:59:54;2.67;;;0.80;;
19057;SDS011;9662;53.612;9.914;2022-09-01T08:02:21;2.50;;;0.70;;
19057;SDS011;9662;53.612;9.914;2022-09-01T08:04:48;0.70;;;0.70;;
19057;SDS011;9662;53.612;9.914;2022-09-01T08:07:16;0.70;;;0.70;;
19057;SDS011;9662;53.612;9.914;2022-09-01T08:09:44;0.60;;;0.60;;
19057;SDS011;9662;53.612;9.914;2022-09-01T08:12:11;1.63;;;1.13;;
19057;SDS011;9662;53.612;9.914;2022-09-01T08:14:38;0.60;;;0.60;;
19057;SDS011;9662;53.612;9.914;2022-09-01T08:17:05;1.70;;;0.83;;
19057;SDS011;9662;53.612;9.914;2022-09-01T08:19:31;1.70;;;0.73;;
19057;SDS011;9662;53.612;9.914;2022-09-01T08:22:00;0.80;;;0.80;;
19057;SDS011;9662;53.612;9.914;2022-09-01T08:24:28;2.58;;;0.90;;
19057;SDS011;9662;53.612;9.914;2022-09-01T08:26:56;0.60;;;0.60;;
19057;SDS011;9662;53.612;9.914;2022-09-01T08:29:22;0.75;;;0.75;;
19057;SDS011;9662;53.612;9.914;2022-09-01T08:31:49;0.55;;;0.55;;
19057;SDS011;9662;53.612;9.914;2022-09-01T08:34:18;0.70;;;0.70;;
19057;SDS011;9662;53.612;9.914;2022-09-01T08:36:45;1.90;;;0.60;;
19057;SDS011;9662;53.612;9.914;2022-09-01T08:39:12;0.60;;;0.60;;
19057;SDS011;9662;53.612;9.914;2022-09-01T08:41:42;0.60;;;0.60;;
19057;SDS011;9662;53.612;9.914;2022-09-01T08:44:17;0.68;;;0.68;;
19057;SDS011;9662;53.612;9.914;2022-09-01T08:46:53;0.70;;;0.70;;
19057;SDS011;9662;53.612;9.914;2022-09-01T08:49:24;2.70;;;0.73;;
19057;SDS011;9662;53.612;9.914;2022-09-01T08:51:52;0.70;;;0.70;;
19057;SDS011;9662;53.612;9.914;2022-09-01T08:54:24;0.52;;;0.52;;
19057;SDS011;9662;53.612;9.914;2022-09-01T08:56:56;0.60;;;0.50;;
19057;SDS011;9662;53.612;9.914;2022-09-01T08:59:25;0.70;;;0.70;;
19057;SDS011;9662;53.612;9.914;2022-09-01T09:01:55;0.80;;;0.43;;
19057;SDS011;9662;53.612;9.914;2022-09-01T09:04:34;0.70;;;0.70;;
19057;SDS011;9662;53.612;9.914;2022-09-01T09:07:12;0.80;;;0.80;;
19057;SDS011;9662;53.612;9.914;2022-09-01T09:09:48;0.70;;;0.70;;
19057;SDS011;9662;53.612;9.914;2022-09-01T09:12:35;0.82;;;0.82;;
19057;SDS011;9662;53.612;9.914;2022-09-01T09:15:16;0.60;;;0.60;;
19057;SDS011;9662;53.612;9.914;2022-09-01T09:17:51;0.73;;;0.73;;
19057;SDS011;9662;53.612;9.914;2022-09-01T09:20:24;1.10;;;1.10;;
19057;SDS011;9662;53.612;9.914;2022-09-01T09:22:51;0.70;;;0.70;;
19057;SDS011;9662;53.612;9.914;2022-09-01T09:25:20;2.63;;;0.77;;
19057;SDS011;9662;53.612;9.914;2022-09-01T09:27:50;0.70;;;0.70;;
19057;SDS011;9662;53.612;9.914;2022-09-01T09:30:18;1.20;;;0.90;;
19057;SDS011;9662;53.612;9.914;2022-09-01T09:32:49;0.73;;;0.73;;
19057;SDS011;9662;53.612;9.914;2022-09-01T09:35:27;0.60;;;0.60;;
19057;SDS011;9662;53.612;9.914;2022-09-01T09:38:13;0.93;;;0.80;;
19057;SDS011;9662;53.612;9.914;2022-09-01T09:40:53;0.55;;;0.55;;
19057;SDS011;9662;53.612;9.914;2022-09-01T09:43:24;4.60;;;0.70;;
19057;SDS011;9662;53.612;9.914;2022-09-01T09:46:18;0.60;;;0.60;;
19057;SDS011;9662;53.612;9.914;2022-09-01T09:48:47;0.63;;;0.63;;
19057;SDS011;9662;53.612;9.914;2022-09-01T09:51:15;0.60;;;0.60;;
19057;SDS011;9662;53.612;9.914;2022-09-01T09:53:46;0.70;;;0.70;;
19057;SDS011;9662;53.612;9.914;2022-09-01T09:56:15;2.30;;;0.68;;
19057;SDS011;9662;53.612;9.914;2022-09-01T09:58:46;0.70;;;0.70;;
19057;SDS011;9662;53.612;9.914;2022-09-01T10:01:26;1.42;;;0.70;;
19057;SDS011;9662;53.612;9.914;2022-09-01T10:03:55;0.68;;;0.68;;
19057;SDS011;9662;53.612;9.914;2022-09-01T10:06:31;0.70;;;0.70;;
19057;SDS011;9662;53.612;9.914;2022-09-01T10:08:59;0.70;;;0.70;;
19057;SDS011;9662;53.612;9.914;2022-09-01T10:11:29;0.60;;;0.60;;
19057;SDS011;9662;53.612;9.914;2022-09-01T10:14:02;2.60;;;0.90;;
19057;SDS011;9662;53.612;9.914;2022-09-01T10:16:31;0.65;;;0.65;;
19057;SDS011;9662;53.612;9.914;2022-09-01T10:19:02;0.67;;;0.67;;
19057;SDS011;9662;53.612;9.914;2022-09-01T10:21:32;0.60;;;0.60;;
19057;SDS011;9662;53.612;9.914;2022-09-01T10:24:06;0.80;;;0.80;;
19057;SDS011;9662;53.612;9.914;2022-09-01T10:26:40;0.80;;;0.80;;
19057;SDS011;9662;53.612;9.914;2022-09-01T10:29:14;0.77;;;0.77;;
19057;SDS011;9662;53.612;9.914;2022-09-01T10:31:45;0.50;;;0.50;;
19057;SDS011;9662;53.612;9.914;2022-09-01T10:34:14;1.00;;;0.60;;
19057;SDS011;9662;53.612;9.914;2022-09-01T10:36:43;0.68;;;0.60;;
19057;SDS011;9662;53.612;9.914;2022-09-01T10:39:12;0.60;;;0.60;;
19057;SDS011;9662;53.612;9.914;2022-09-01T10:41:50;0.68;;;0.68;;
19057;SDS011;9662;53.612;9.914;2022-09-01T10:44:23;0.80;;;0.80;;
19057;SDS011;9662;53.612;9.914;2022-09-01T10:46:54;0.60;;;0.60;;
19057;SDS011;9662;53.612;9.914;2022-09-01T10:55:33;0.50;;;0.50;;
19057;SDS011;9662;53.612;9.914;2022-09-01T10:58:24;0.63;;;0.63;;
19057;SDS011;9662;53.612;9.914;2022-09-01T11:01:09;2.40;;;1.02;;
19057;SDS011;9662;53.612;9.914;2022-09-01T11:03:49;0.63;;;0.63;;
19057;SDS011;9662;53.612;9.914;2022-09-01T11:09:17;0.60;;;0.60;;
19057;SDS011;9662;53.612;9.914;2022-09-01T11:11:48;0.60;;;0.60;;
19057;SDS011;9662;53.612;9.914;2022-09-01T11:14:27;0.70;;;0.70;;
19057;SDS011;9662;53.612;9.914;2022-09-01T11:17:14;0.60;;;0.60;;
19057;SDS011;9662;53.612;9.914;2022-09-01T11:19:43;0.90;;;0.90;;
19057;SDS011;9662;53.612;9.914;2022-09-01T11:22:19;0.73;;;0.73;;
19057;SDS011;9662;53.612;9.914;2022-09-01T11:24:51;0.80;;;0.80;;
19057;SDS011;9662;53.612;9.914;2022-09-01T11:27:55;0.50;;;0.50;;
19057;SDS011;9662;53.612;9.914;2022-09-01T11:30:31;0.70;;;0.70;;
19057;SDS011;9662;53.612;9.914;2022-09-01T11:33:19;0.75;;;0.75;;
19057;SDS011;9662;53.612;9.914;2022-09-01T11:36:00;0.70;;;0.70;;
19057;SDS011;9662;53.612;9.914;2022-09-01T11:38:31;0.90;;;0.90;;
19057;SDS011;9662;53.612;9.914;2022-09-01T11:41:03;1.20;;;0.70;;
19057;SDS011;9662;53.612;9.914;2022-09-01T11:43:30;1.33;;;0.73;;
19057;SDS011;9662;53.612;9.914;2022-09-01T11:46:00;0.55;;;0.55;;
19057;SDS011;9662;53.612;9.914;2022-09-01T11:48:34;0.70;;;0.70;;
19057;SDS011;9662;53.612;9.914;2022-09-01T11:51:02;0.55;;;0.55;;
19057;SDS011;9662;53.612;9.914;2022-09-01T11:53:30;1.05;;;0.70;;
19057;SDS011;9662;53.612;9.914;2022-09-01T11:56:10;0.80;;;0.80;;
19057;SDS011;9662;53.612;9.914;2022-09-01T11:58:40;0.80;;;0.80;;
19057;SDS011;9662;53.612;9.914;2022-09-01T12:01:11;0.85;;;0.85;;
19057;SDS011;9662;53.612;9.914;2022-09-01T12:03:42;0.60;;;0.60;;
19057;SDS011;9662;53.612;9.914;2022-09-01T12:06:12;0.50;;;0.50;;
19057;SDS011;9662;53.612;9.914;2022-09-01T12:08:50;0.73;;;0.73;;
19057;SDS011;9662;53.612;9.914;2022-09-01T12:11:19;0.60;;;0.60;;
19057;SDS011;9662;53.612;9.914;2022-09-01T12:13:58;0.60;;;0.60;;
19057;SDS011;9662;53.612;9.914;2022-09-01T12:16:26;0.70;;;0.70;;
19057;SDS011;9662;53.612;9.914;2022-09-01T12:18:55;0.75;;;0.75;;
19057;SDS011;9662;53.612;9.914;2022-09-01T12:21:25;0.68;;;0.68;;
19057;SDS011;9662;53.612;9.914;2022-09-01T12:23:53;1.50;;;0.80;;
19057;SDS011;9662;53.612;9.914;2022-09-01T12:26:37;0.60;;;0.60;;
19057;SDS011;9662;53.612;9.914;2022-09-01T12:29:04;0.75;;;0.75;;
19057;SDS011;9662;53.612;9.914;2022-09-01T12:31:32;1.20;;;0.70;;
19057;SDS011;9662;53.612;9.914;2022-09-01T12:34:00;1.75;;;1.00;;
19057;SDS011;9662;53.612;9.914;2022-09-01T12:36:29;0.50;;;0.50;;
19057;SDS011;9662;53.612;9.914;2022-09-01T12:39:17;0.60;;;0.60;;
19057;SDS011;9662;53.612;9.914;2022-09-01T12:41:46;0.65;;;0.65;;
19057;SDS011;9662;53.612;9.914;2022-09-01T12:44:26;2.20;;;0.65;;
19057;SDS011;9662;53.612;9.914;2022-09-01T12:46:55;7.20;;;0.90;;
19057;SDS011;9662;53.612;9.914;2022-09-01T12:49:24;4.10;;;1.20;;
19057;SDS011;9662;53.612;9.914;2022-09-01T12:52:09;0.60;;;0.60;;
19057;SDS011;9662;53.612;9.914;2022-09-01T12:54:39;0.63;;;0.63;;
19057;SDS011;9662;53.612;9.914;2022-09-01T12:57:05;0.80;;;0.80;;
19057;SDS011;9662;53.612;9.914;2022-09-01T12:59:32;0.60;;;0.60;;
19057;SDS011;9662;53.612;9.914;2022-09-01T13:07:45;0.70;;;0.70;;
19057;SDS011;9662;53.612;9.914;2022-09-01T13:10:11;0.60;;;0.60;;
19057;SDS011;9662;53.612;9.914;2022-09-01T13:12:39;0.60;;;0.60;;
19057;SDS011;9662;53.612;9.914;2022-09-01T13:15:07;0.88;;;0.77;;
19057;SDS011;9662;53.612;9.914;2022-09-01T13:17:34;0.40;;;0.40;;
19057;SDS011;9662;53.612;9.914;2022-09-01T13:20:02;1.00;;;0.90;;
19057;SDS011;9662;53.612;9.914;2022-09-01T13:22:30;4.95;;;0.60;;
19057;SDS011;9662;53.612;9.914;2022-09-01T13:24:57;1.60;;;0.93;;
19057;SDS011;9662;53.612;9.914;2022-09-01T13:27:24;2.47;;;0.80;;
19057;SDS011;9662;53.612;9.914;2022-09-01T13:29:51;0.70;;;0.70;;
19057;SDS011;9662;53.612;9.914;2022-09-01T13:32:18;0.77;;;0.77;;
19057;SDS011;9662;53.612;9.914;2022-09-01T13:34:47;2.60;;;0.75;;
19057;SDS011;9662;53.612;9.914;2022-09-01T13:37:15;2.20;;;0.70;;
19057;SDS011;9662;53.612;9.914;2022-09-01T13:39:45;0.80;;;0.80;;
19057;SDS011;9662;53.612;9.914;2022-09-01T13:42:12;0.73;;;0.73;;
19057;SDS011;9662;53.612;9.914;2022-09-01T13:44:39;0.70;;;0.70;;
19057;SDS011;9662;53.612;9.914;2022-09-01T13:47:06;1.90;;;1.00;;
19057;SDS011;9662;53.612;9.914;2022-09-01T13:49:33;0.60;;;0.60;;
19057;SDS011;9662;53.612;9.914;2022-09-01T13:51:59;0.60;;;0.60;;
19057;SDS011;9662;53.612;9.914;2022-09-01T13:54:26;0.68;;;0.68;;
19057;SDS011;9662;53.612;9.914;2022-09-01T13:56:54;0.70;;;0.70;;
19057;SDS011;9662;53.612;9.914;2022-09-01T13:59:21;0.70;;;0.70;;
19057;SDS011;9662;53.612;9.914;2022-09-01T14:01:48;0.70;;;0.70;;
19057;SDS011;9662;53.612;9.914;2022-09-01T14:04:15;0.55;;;0.55;;
19057;SDS011;9662;53.612;9.914;2022-09-01T14:06:43;0.70;;;0.70;;
19057;SDS011;9662;53.612;9.914;2022-09-01T14:09:11;1.00;;;0.65;;
19057;SDS011;9662;53.612;9.914;2022-09-01T14:11:39;0.77;;;0.77;;
19057;SDS011;9662;53.612;9.914;2022-09-01T14:14:07;0.70;;;0.70;;
19057;SDS011;9662;53.612;9.914;2022-09-01T14:16:34;0.70;;;0.70;;
19057;SDS011;9662;53.612;9.914;2022-09-01T14:19:01;1.20;;;0.60;;
19057;SDS011;9662;53.612;9.914;2022-09-01T14:21:28;1.00;;;0.70;;
19057;SDS011;9662;53.612;9.914;2022-09-01T14:23:55;0.73;;;0.73;;
19057;SDS011;9662;53.612;9.914;2022-09-01T14:26:22;0.70;;;0.70;;
19057;SDS011;9662;53.612;9.914;2022-09-01T14:28:49;0.70;;;0.70;;
19057;SDS011;9662;53.612;9.914;2022-09-01T14:31:17;2.50;;;0.80;;
19057;SDS011;9662;53.612;9.914;2022-09-01T14:33:44;0.57;;;0.57;;
19057;SDS011;9662;53.612;9.914;2022-09-01T14:36:15;0.85;;;0.85;;
19057;SDS011;9662;53.612;9.914;2022-09-01T14:38:44;0.68;;;0.68;;
19057;SDS011;9662;53.612;9.914;2022-09-01T14:41:11;0.70;;;0.70;;
19057;SDS011;9662;53.612;9.914;2022-09-01T14:43:38;3.00;;;0.77;;
19057;SDS011;9662;53.612;9.914;2022-09-01T14:46:07;0.70;;;0.70;;
19057;SDS011;9662;53.612;9.914;2022-09-01T14:48:37;0.90;;;0.90;;
19057;SDS011;9662;53.612;9.914;2022-09-01T14:51:05;0.70;;;0.70;;
19057;SDS011;9662;53.612;9.914;2022-09-01T14:53:32;3.22;;;0.73;;
19057;SDS011;9662;53.612;9.914;2022-09-01T14:56:00;0.77;;;0.77;;
19057;SDS011;9662;53.612;9.914;2022-09-01T14:58:27;0.70;;;0.70;;
19057;SDS011;9662;53.612;9.914;2022-09-01T15:00:55;1.00;;;0.60;;
19057;SDS011;9662;53.612;9.914;2022-09-01T15:03:22;0.65;;;0.65;;
19057;SDS011;9662;53.612;9.914;2022-09-01T15:05:53;1.08;;;1.08;;
19057;SDS011;9662;53.612;9.914;2022-09-01T15:08:20;1.30;;;1.20;;
19057;SDS011;9662;53.612;9.914;2022-09-01T15:10:47;0.70;;;0.70;;
19057;SDS011;9662;53.612;9.914;2022-09-01T15:13:14;0.75;;;0.75;;
19057;SDS011;9662;53.612;9.914;2022-09-01T15:15:41;0.60;;;0.60;;
19057;SDS011;9662;53.612;9.914;2022-09-01T15:18:07;1.10;;;0.90;;
19057;SDS011;9662;53.612;9.914;2022-09-01T15:20:37;1.00;;;0.73;;
19057;SDS011;9662;53.612;9.914;2022-09-01T15:23:12;0.70;;;0.70;;
19057;SDS011;9662;53.612;9.914;2022-09-01T15:25:40;0.70;;;0.70;;
19057;SDS011;9662;53.612;9.914;2022-09-01T15:28:07;0.80;;;0.80;;
19057;SDS011;9662;53.612;9.914;2022-09-01T15:30:35;0.70;;;0.70;;
19057;SDS011;9662;53.612;9.914;2022-09-01T15:33:03;0.90;;;0.90;;